Unicom:                    122.8

AWOS:                  118.275

Elevation           1458’ MSL

TPA:                   2500’ MSL

06/24:         5003’ L   75’ W

PAPI:       06/Left     24/Left

(Operate lights on unicom freq.)

Traffic Pattern: Left

Beacon: Sunset to Sunrise

Windsock: yes, lighted

Segmented Circle: No

 

Cleveland Center: 126.72/291.65

FSS: Altoona

[Source: ADDS]
METAR
KFKL 281829Z AUTO 02006KT 9SM -SN SCT016 OVC028 M05/M08 A3004 RMK AO2 P0000 FZRANO =
KFKL 281727Z 2818/2918 01008KT 6SM BR VCSH OVC020 FM281900 36007KT P6SM BKN012 FM290600 01005KT P6SM BKN035 FM291500 35009G17KT P6SM SCT060
TAF
KFKL 281727Z 2818/2918 01008KT 6SM BR VCSH OVC020 FM281900 36007KT P6SM BKN012 FM290600 01005KT P6SM BKN035 FM291500 35009G17KT P6SM SCT060 =
[Source: ADDS]
METAR
KDUJ 281853Z AUTO 34004KT 6SM HZ SCT021 OVC027 M03/M07 A2996 RMK AO2 SLP169 T10281067 =
KDUJ 281727Z 2818/2918 36005KT 6SM BR VCSH OVC015 FM282000 01008KT P6SM OVC020 FM290600 02007KT P6SM SCT029 FM291300 35008G17KT P6SM SCT070
TAF
KDUJ 281727Z 2818/2918 36005KT 6SM BR VCSH OVC015 FM282000 01008KT P6SM OVC020 FM290600 02007KT P6SM SCT029 FM291300 35008G17KT P6SM SCT070 =

Nearby Overnight Accommodations.

The Park Inn by Radisson

45 Holiday Inn Rd

Clarion, PA 16214

Phone # (814) 226-8850

Park Inn by Radisson

45 Holiday Inn Rd Clarion, PA 16214 Phone # (814) 226-8850

Microtel

121 North Point Drive

Clarion, PA 16214

Phone # (814) 227-2223

Microtel

121 North Point Drive Clarion, PA 16214 Phone # (814) 227-2223

Hampton Inn and Suites

4 Hospital Drive

Clarion, PA 16214

Phone # (814) 226-4444

Hampton Inn & Suites

4 Hospital Drive Clarion, PA 16214 Phone # (814) 226-4444

Comfort Inn

129 Dolby Street

Clarion, PA 16214

Phone # (814) 226-5230

Comfort Inn

129 Dolby Street Clarion, PA 16214 Phone # (814) 226-5230

Quality Inn

24 United Drive

Clarion, PA 16214 

Phone # (814) 226-8682 


Quality Inn

24 United Drive Clarion, PA 16214 Phone # (814) 226-8682

Holiday Inn Express

325 Perkins Road

Clarion, PA 16214

Phone (814) 223-4010


Holiday Inn Express

325 Perkins Road Clarion, PA 16214 Phone (814) 223-4010

Super 8 Motel

135 Hotel Road

Clarion, PA 16214

Phone # (800) 536-9326

Super 8 Motel

135 Hotel Road Clarion, PA 16214 Phone # (800) 536-9326


Transportation.

Enterprise

545 South Fifth Avenue

Clarion, PA 16214

Phone # (814) 227-1284

Enterprise

545 South Fifth Avenue Clarion, PA 16214 Phone # (814) 227-1284

Clarion County Taxi, Inc.

East End Road

Clarion County Taxi, Inc.

Shippenville, PA 16254

Phone # (814) 226-8635

 *cash, check, debit


Choice Cab Co.

Clarion, PA 16214

Phone # (814) 221- 4992

 *cash only